sensor_id;sensor_type;location;lat;lon;timestamp;pressure;altitude;pressure_sealevel;temperature;humidity
34243;BME280;20504;43.214;27.920;2023-02-17T00:00:53;101230.69;;;6.45;100.00
34243;BME280;20504;43.214;27.920;2023-02-17T00:03:18;101248.69;;;6.33;100.00
34243;BME280;20504;43.214;27.920;2023-02-17T00:05:44;101233.50;;;6.40;100.00
34243;BME280;20504;43.214;27.920;2023-02-17T00:08:10;101241.88;;;6.26;100.00
34243;BME280;20504;43.214;27.920;2023-02-17T00:10:35;101212.47;;;6.38;100.00
34243;BME280;20504;43.214;27.920;2023-02-17T00:13:00;101224.13;;;6.31;100.00
34243;BME280;20504;43.214;27.920;2023-02-17T00:15:26;101211.31;;;6.22;100.00
34243;BME280;20504;43.214;27.920;2023-02-17T00:17:51;101196.06;;;6.30;100.00
34243;BME280;20504;43.214;27.920;2023-02-17T00:20:17;101205.97;;;6.24;100.00
34243;BME280;20504;43.214;27.920;2023-02-17T00:22:42;101199.22;;;6.17;100.00
34243;BME280;20504;43.214;27.920;2023-02-17T00:25:08;101170.88;;;6.23;100.00
34243;BME280;20504;43.214;27.920;2023-02-17T00:27:33;101166.28;;;6.28;100.00
34243;BME280;20504;43.214;27.920;2023-02-17T00:29:59;101157.53;;;6.28;100.00
34243;BME280;20504;43.214;27.920;2023-02-17T00:32:24;101171.00;;;6.20;100.00
34243;BME280;20504;43.214;27.920;2023-02-17T00:34:51;101150.72;;;6.22;100.00
34243;BME280;20504;43.214;27.920;2023-02-17T00:37:17;101132.84;;;6.30;100.00
34243;BME280;20504;43.214;27.920;2023-02-17T00:39:43;101151.75;;;6.18;100.00
34243;BME280;20504;43.214;27.920;2023-02-17T00:42:08;101145.69;;;6.16;100.00
34243;BME280;20504;43.214;27.920;2023-02-17T00:44:34;101134.84;;;6.24;100.00
34243;BME280;20504;43.214;27.920;2023-02-17T00:46:59;101125.16;;;6.24;100.00
34243;BME280;20504;43.214;27.920;2023-02-17T00:49:26;101123.16;;;6.07;100.00
34243;BME280;20504;43.214;27.920;2023-02-17T00:51:51;101127.31;;;6.13;100.00
34243;BME280;20504;43.214;27.920;2023-02-17T00:54:17;101113.09;;;6.19;100.00
34243;BME280;20504;43.214;27.920;2023-02-17T00:56:43;101105.13;;;6.20;100.00
34243;BME280;20504;43.214;27.920;2023-02-17T00:59:10;101104.53;;;6.12;100.00
34243;BME280;20504;43.214;27.920;2023-02-17T01:01:35;101083.09;;;6.23;100.00
34243;BME280;20504;43.214;27.920;2023-02-17T01:04:01;101084.97;;;6.19;100.00
34243;BME280;20504;43.214;27.920;2023-02-17T01:06:34;101082.66;;;6.10;100.00
34243;BME280;20504;43.214;27.920;2023-02-17T01:09:00;101070.88;;;6.20;100.00
34243;BME280;20504;43.214;27.920;2023-02-17T01:11:28;101037.94;;;6.32;100.00
34243;BME280;20504;43.214;27.920;2023-02-17T01:13:55;101039.50;;;6.37;100.00
34243;BME280;20504;43.214;27.920;2023-02-17T01:16:22;101049.19;;;6.37;100.00
34243;BME280;20504;43.214;27.920;2023-02-17T01:18:48;101053.59;;;6.36;100.00
34243;BME280;20504;43.214;27.920;2023-02-17T01:21:15;101060.78;;;6.31;100.00
34243;BME280;20504;43.214;27.920;2023-02-17T01:23:41;101044.88;;;6.34;100.00
34243;BME280;20504;43.214;27.920;2023-02-17T01:26:06;101051.63;;;6.42;100.00
34243;BME280;20504;43.214;27.920;2023-02-17T01:28:32;101066.91;;;6.32;100.00
34243;BME280;20504;43.214;27.920;2023-02-17T01:30:57;101048.31;;;6.36;100.00
34243;BME280;20504;43.214;27.920;2023-02-17T01:33:23;101061.16;;;6.22;100.00
34243;BME280;20504;43.214;27.920;2023-02-17T01:35:48;101083.69;;;6.29;100.00
34243;BME280;20504;43.214;27.920;2023-02-17T01:38:13;101072.25;;;6.30;100.00
34243;BME280;20504;43.214;27.920;2023-02-17T01:40:46;101092.88;;;6.19;100.00
34243;BME280;20504;43.214;27.920;2023-02-17T01:43:15;101090.81;;;6.27;100.00
34243;BME280;20504;43.214;27.920;2023-02-17T01:45:48;101065.72;;;6.41;100.00
34243;BME280;20504;43.214;27.920;2023-02-17T01:48:17;101054.78;;;6.51;100.00
34243;BME280;20504;43.214;27.920;2023-02-17T01:50:49;101054.59;;;6.56;100.00
34243;BME280;20504;43.214;27.920;2023-02-17T01:53:21;101111.31;;;6.19;100.00
34243;BME280;20504;43.214;27.920;2023-02-17T01:55:49;101108.25;;;6.30;100.00
34243;BME280;20504;43.214;27.920;2023-02-17T01:58:18;101130.63;;;6.20;100.00
34243;BME280;20504;43.214;27.920;2023-02-17T02:00:46;101128.97;;;6.17;100.00
34243;BME280;20504;43.214;27.920;2023-02-17T02:03:13;101140.84;;;6.04;100.00
34243;BME280;20504;43.214;27.920;2023-02-17T02:05:40;101135.63;;;6.02;100.00
34243;BME280;20504;43.214;27.920;2023-02-17T02:08:07;101123.03;;;6.11;100.00
34243;BME280;20504;43.214;27.920;2023-02-17T02:10:32;101134.72;;;6.03;100.00
34243;BME280;20504;43.214;27.920;2023-02-17T02:12:58;101120.63;;;6.04;100.00
34243;BME280;20504;43.214;27.920;2023-02-17T02:15:28;101132.19;;;6.00;100.00
34243;BME280;20504;43.214;27.920;2023-02-17T02:26:48;101111.88;;;6.04;100.00
34243;BME280;20504;43.214;27.920;2023-02-17T02:34:25;101094.91;;;6.11;100.00
34243;BME280;20504;43.214;27.920;2023-02-17T02:37:01;101104.66;;;6.09;100.00
34243;BME280;20504;43.214;27.920;2023-02-17T02:39:38;101110.16;;;6.03;100.00
34243;BME280;20504;43.214;27.920;2023-02-17T02:42:08;101112.72;;;6.04;100.00
34243;BME280;20504;43.214;27.920;2023-02-17T02:44:35;101124.41;;;5.97;100.00
34243;BME280;20504;43.214;27.920;2023-02-17T02:47:32;101141.34;;;5.89;100.00
34243;BME280;20504;43.214;27.920;2023-02-17T02:49:48;101112.19;;;5.95;100.00
34243;BME280;20504;43.214;27.920;2023-02-17T02:52:20;101142.50;;;5.82;100.00
34243;BME280;20504;43.214;27.920;2023-02-17T02:55:07;101129.81;;;5.93;100.00
34243;BME280;20504;43.214;27.920;2023-02-17T03:02:58;101143.66;;;5.73;100.00
34243;BME280;20504;43.214;27.920;2023-02-17T03:05:56;101131.34;;;5.73;100.00
34243;BME280;20504;43.214;27.920;2023-02-17T03:08:57;101127.81;;;5.74;100.00
34243;BME280;20504;43.214;27.920;2023-02-17T03:11:26;101105.81;;;5.77;100.00
34243;BME280;20504;43.214;27.920;2023-02-17T03:14:12;101126.19;;;5.70;100.00
34243;BME280;20504;43.214;27.920;2023-02-17T03:16:39;101123.44;;;5.73;100.00
34243;BME280;20504;43.214;27.920;2023-02-17T03:19:06;101126.41;;;5.64;100.00
34243;BME280;20504;43.214;27.920;2023-02-17T03:21:38;101112.88;;;5.75;100.00
34243;BME280;20504;43.214;27.920;2023-02-17T03:24:06;101126.31;;;5.67;100.00
34243;BME280;20504;43.214;27.920;2023-02-17T03:26:32;101125.63;;;5.62;100.00
34243;BME280;20504;43.214;27.920;2023-02-17T03:28:57;101120.88;;;5.72;100.00
34243;BME280;20504;43.214;27.920;2023-02-17T03:31:23;101125.50;;;5.65;100.00
34243;BME280;20504;43.214;27.920;2023-02-17T03:33:48;101104.13;;;5.74;100.00
34243;BME280;20504;43.214;27.920;2023-02-17T03:36:14;101107.47;;;5.80;100.00
34243;BME280;20504;43.214;27.920;2023-02-17T03:38:39;101109.25;;;5.79;100.00
34243;BME280;20504;43.214;27.920;2023-02-17T03:41:05;101117.22;;;5.76;100.00
34243;BME280;20504;43.214;27.920;2023-02-17T03:43:30;101109.19;;;5.81;100.00
34243;BME280;20504;43.214;27.920;2023-02-17T03:45:56;101107.34;;;5.83;100.00
34243;BME280;20504;43.214;27.920;2023-02-17T03:48:21;101114.38;;;5.82;100.00
34243;BME280;20504;43.214;27.920;2023-02-17T03:50:47;101109.81;;;5.87;100.00
34243;BME280;20504;43.214;27.920;2023-02-17T03:53:12;101080.59;;;5.95;100.00
34243;BME280;20504;43.214;27.920;2023-02-17T03:55:38;101099.22;;;5.89;100.00
34243;BME280;20504;43.214;27.920;2023-02-17T03:58:03;101084.06;;;5.97;100.00
34243;BME280;20504;43.214;27.920;2023-02-17T04:00:29;101100.84;;;5.93;100.00
34243;BME280;20504;43.214;27.920;2023-02-17T04:02:55;101020.66;;;6.25;100.00
34243;BME280;20504;43.214;27.920;2023-02-17T04:05:22;100987.78;;;6.35;100.00
34243;BME280;20504;43.214;27.920;2023-02-17T04:07:48;100955.50;;;6.52;100.00
34243;BME280;20504;43.214;27.920;2023-02-17T04:10:13;100945.22;;;6.66;100.00
34243;BME280;20504;43.214;27.920;2023-02-17T04:12:39;100955.88;;;6.63;100.00
34243;BME280;20504;43.214;27.920;2023-02-17T04:15:04;100963.31;;;6.75;100.00
34243;BME280;20504;43.214;27.920;2023-02-17T04:17:30;100983.47;;;6.76;100.00
34243;BME280;20504;43.214;27.920;2023-02-17T04:19:56;100984.00;;;6.84;100.00
34243;BME280;20504;43.214;27.920;2023-02-17T04:22:21;101006.16;;;6.80;100.00
34243;BME280;20504;43.214;27.920;2023-02-17T04:24:47;101013.78;;;6.86;100.00
34243;BME280;20504;43.214;27.920;2023-02-17T04:27:12;100999.13;;;7.01;100.00
34243;BME280;20504;43.214;27.920;2023-02-17T04:29:38;101034.09;;;6.84;100.00
34243;BME280;20504;43.214;27.920;2023-02-17T04:32:03;101057.16;;;6.79;100.00
34243;BME280;20504;43.214;27.920;2023-02-17T04:34:29;101114.16;;;6.60;100.00
34243;BME280;20504;43.214;27.920;2023-02-17T04:36:54;101136.06;;;6.38;100.00
34243;BME280;20504;43.214;27.920;2023-02-17T04:39:20;101169.84;;;6.27;100.00
34243;BME280;20504;43.214;27.920;2023-02-17T04:41:46;101179.16;;;6.13;100.00
34243;BME280;20504;43.214;27.920;2023-02-17T04:44:11;101196.31;;;5.99;100.00
34243;BME280;20504;43.214;27.920;2023-02-17T04:46:37;101197.34;;;5.95;100.00
34243;BME280;20504;43.214;27.920;2023-02-17T04:49:02;101212.72;;;5.81;100.00
34243;BME280;20504;43.214;27.920;2023-02-17T04:51:27;101190.84;;;5.79;100.00
34243;BME280;20504;43.214;27.920;2023-02-17T04:53:53;101194.69;;;5.69;100.00
34243;BME280;20504;43.214;27.920;2023-02-17T04:56:19;101175.09;;;5.77;100.00
34243;BME280;20504;43.214;27.920;2023-02-17T04:58:44;101158.34;;;5.80;100.00
34243;BME280;20504;43.214;27.920;2023-02-17T05:01:10;101137.84;;;5.90;100.00
34243;BME280;20504;43.214;27.920;2023-02-17T05:03:35;101187.16;;;5.58;100.00
34243;BME280;20504;43.214;27.920;2023-02-17T05:06:01;101164.00;;;5.68;100.00
34243;BME280;20504;43.214;27.920;2023-02-17T05:08:26;101155.09;;;5.72;100.00
34243;BME280;20504;43.214;27.920;2023-02-17T05:10:52;101152.63;;;5.67;100.00
34243;BME280;20504;43.214;27.920;2023-02-17T05:13:18;101091.78;;;6.01;100.00
34243;BME280;20504;43.214;27.920;2023-02-17T05:15:44;101066.38;;;6.00;100.00
34243;BME280;20504;43.214;27.920;2023-02-17T05:18:10;101095.97;;;6.07;100.00
34243;BME280;20504;43.214;27.920;2023-02-17T05:20:35;101097.69;;;6.08;100.00
34243;BME280;20504;43.214;27.920;2023-02-17T05:23:01;101111.81;;;6.05;100.00
34243;BME280;20504;43.214;27.920;2023-02-17T05:25:27;101125.47;;;5.92;100.00
34243;BME280;20504;43.214;27.920;2023-02-17T05:27:52;101124.25;;;6.02;100.00
34243;BME280;20504;43.214;27.920;2023-02-17T05:30:18;101123.31;;;6.03;100.00
34243;BME280;20504;43.214;27.920;2023-02-17T05:32:44;101113.41;;;6.10;100.00
34243;BME280;20504;43.214;27.920;2023-02-17T05:35:09;101080.97;;;6.09;100.00
34243;BME280;20504;43.214;27.920;2023-02-17T05:37:35;101122.84;;;6.17;100.00
34243;BME280;20504;43.214;27.920;2023-02-17T05:40:00;101108.69;;;6.19;100.00
34243;BME280;20504;43.214;27.920;2023-02-17T05:42:26;101096.25;;;6.46;100.00
34243;BME280;20504;43.214;27.920;2023-02-17T05:44:53;101096.25;;;6.46;100.00
34243;BME280;20504;43.214;27.920;2023-02-17T05:47:19;101087.88;;;6.58;100.00
34243;BME280;20504;43.214;27.920;2023-02-17T05:49:45;101062.31;;;6.82;100.00
34243;BME280;20504;43.214;27.920;2023-02-17T05:52:10;101051.53;;;6.88;100.00
34243;BME280;20504;43.214;27.920;2023-02-17T05:54:36;101020.56;;;7.14;100.00
34243;BME280;20504;43.214;27.920;2023-02-17T05:57:01;101017.34;;;7.27;100.00
34243;BME280;20504;43.214;27.920;2023-02-17T05:59:27;100996.16;;;7.49;100.00
34243;BME280;20504;43.214;27.920;2023-02-17T06:01:52;101024.97;;;7.54;100.00
34243;BME280;20504;43.214;27.920;2023-02-17T06:04:18;101040.47;;;7.41;100.00
34243;BME280;20504;43.214;27.920;2023-02-17T06:06:43;101035.44;;;7.76;100.00
34243;BME280;20504;43.214;27.920;2023-02-17T06:09:09;101056.09;;;7.86;100.00
34243;BME280;20504;43.214;27.920;2023-02-17T06:11:34;101083.66;;;7.81;100.00
34243;BME280;20504;43.214;27.920;2023-02-17T06:14:00;101110.78;;;7.84;100.00
34243;BME280;20504;43.214;27.920;2023-02-17T06:16:25;101107.50;;;7.98;100.00
34243;BME280;20504;43.214;27.920;2023-02-17T06:18:51;101142.72;;;7.78;100.00
34243;BME280;20504;43.214;27.920;2023-02-17T06:21:16;101159.56;;;7.76;100.00
34243;BME280;20504;43.214;27.920;2023-02-17T06:23:42;101148.47;;;7.88;100.00
34243;BME280;20504;43.214;27.920;2023-02-17T06:26:07;101132.16;;;7.78;100.00
34243;BME280;20504;43.214;27.920;2023-02-17T06:28:32;101153.34;;;7.97;100.00
34243;BME280;20504;43.214;27.920;2023-02-17T06:30:58;101207.34;;;7.70;100.00
34243;BME280;20504;43.214;27.920;2023-02-17T06:33:23;101164.59;;;8.02;100.00
34243;BME280;20504;43.214;27.920;2023-02-17T06:35:50;101146.59;;;8.10;100.00
34243;BME280;20504;43.214;27.920;2023-02-17T06:38:16;101153.38;;;8.16;100.00
34243;BME280;20504;43.214;27.920;2023-02-17T06:40:41;101150.91;;;8.32;100.00
34243;BME280;20504;43.214;27.920;2023-02-17T06:43:07;101206.91;;;8.01;100.00
34243;BME280;20504;43.214;27.920;2023-02-17T06:45:32;101218.50;;;7.97;100.00
34243;BME280;20504;43.214;27.920;2023-02-17T06:47:58;101219.50;;;7.94;100.00
34243;BME280;20504;43.214;27.920;2023-02-17T06:50:23;101196.00;;;8.08;100.00
34243;BME280;20504;43.214;27.920;2023-02-17T06:52:49;101212.84;;;8.06;100.00
34243;BME280;20504;43.214;27.920;2023-02-17T06:55:14;101190.38;;;8.36;100.00
34243;BME280;20504;43.214;27.920;2023-02-17T06:57:40;101212.22;;;8.41;100.00
34243;BME280;20504;43.214;27.920;2023-02-17T07:00:06;101152.13;;;8.83;100.00
34243;BME280;20504;43.214;27.920;2023-02-17T07:02:32;101227.19;;;8.61;100.00
34243;BME280;20504;43.214;27.920;2023-02-17T07:04:57;101221.47;;;8.70;100.00
34243;BME280;20504;43.214;27.920;2023-02-17T07:07:22;101206.53;;;8.88;100.00
34243;BME280;20504;43.214;27.920;2023-02-17T07:09:48;101220.91;;;9.01;100.00
34243;BME280;20504;43.214;27.920;2023-02-17T07:12:14;101157.59;;;9.52;100.00
34243;BME280;20504;43.214;27.920;2023-02-17T07:14:39;101170.44;;;9.59;100.00
34243;BME280;20504;43.214;27.920;2023-02-17T07:17:05;101170.53;;;9.75;100.00
34243;BME280;20504;43.214;27.920;2023-02-17T07:19:30;101209.25;;;9.78;100.00
34243;BME280;20504;43.214;27.920;2023-02-17T07:21:56;101210.25;;;9.92;100.00
34243;BME280;20504;43.214;27.920;2023-02-17T07:24:21;101182.75;;;10.29;100.00
34243;BME280;20504;43.214;27.920;2023-02-17T07:26:47;101164.84;;;10.66;100.00
34243;BME280;20504;43.214;27.920;2023-02-17T07:29:12;101165.72;;;10.82;100.00
34243;BME280;20504;43.214;27.920;2023-02-17T07:31:38;101176.28;;;11.00;100.00
34243;BME280;20504;43.214;27.920;2023-02-17T07:34:04;101158.09;;;11.23;100.00
34243;BME280;20504;43.214;27.920;2023-02-17T07:36:30;101191.75;;;11.23;100.00
34243;BME280;20504;43.214;27.920;2023-02-17T07:38:55;101183.78;;;11.39;100.00
34243;BME280;20504;43.214;27.920;2023-02-17T07:41:23;101173.47;;;11.48;100.00
34243;BME280;20504;43.214;27.920;2023-02-17T07:43:52;101231.50;;;11.09;100.00
34243;BME280;20504;43.214;27.920;2023-02-17T07:46:18;101188.63;;;11.46;100.00
34243;BME280;20504;43.214;27.920;2023-02-17T07:48:45;101175.88;;;11.53;100.00
34243;BME280;20504;43.214;27.920;2023-02-17T07:51:12;101136.50;;;11.90;100.00
34243;BME280;20504;43.214;27.920;2023-02-17T07:53:38;101123.25;;;12.18;100.00
34243;BME280;20504;43.214;27.920;2023-02-17T07:56:06;101165.69;;;11.91;100.00
34243;BME280;20504;43.214;27.920;2023-02-17T07:58:33;101138.84;;;12.10;100.00
34243;BME280;20504;43.214;27.920;2023-02-17T08:03:32;101125.38;;;12.27;100.00
34243;BME280;20504;43.214;27.920;2023-02-17T08:05:58;101082.44;;;12.60;100.00
34243;BME280;20504;43.214;27.920;2023-02-17T08:08:23;101075.28;;;12.75;100.00
34243;BME280;20504;43.214;27.920;2023-02-17T08:11:11;101080.63;;;12.75;100.00
34243;BME280;20504;43.214;27.920;2023-02-17T08:13:55;101037.94;;;13.16;100.00
34243;BME280;20504;43.214;27.920;2023-02-17T08:16:21;101011.19;;;13.45;100.00
34243;BME280;20504;43.214;27.920;2023-02-17T08:18:46;101021.19;;;13.28;100.00
34243;BME280;20504;43.214;27.920;2023-02-17T08:21:12;101048.34;;;13.21;100.00
34243;BME280;20504;43.214;27.920;2023-02-17T08:23:37;100966.41;;;13.75;100.00
34243;BME280;20504;43.214;27.920;2023-02-17T08:26:03;100967.81;;;13.81;100.00
34243;BME280;20504;43.214;27.920;2023-02-17T08:28:29;100969.38;;;13.83;100.00
34243;BME280;20504;43.214;27.920;2023-02-17T08:30:54;100962.00;;;14.00;100.00
34243;BME280;20504;43.214;27.920;2023-02-17T08:33:20;100967.75;;;14.06;100.00
34243;BME280;20504;43.214;27.920;2023-02-17T08:35:45;100999.16;;;13.77;100.00
34243;BME280;20504;43.214;27.920;2023-02-17T08:38:11;100964.78;;;13.98;100.00
34243;BME280;20504;43.214;27.920;2023-02-17T08:40:36;100937.38;;;13.96;100.00
34243;BME280;20504;43.214;27.920;2023-02-17T08:43:02;100971.38;;;14.05;100.00
34243;BME280;20504;43.214;27.920;2023-02-17T08:45:27;100977.09;;;14.12;100.00
34243;BME280;20504;43.214;27.920;2023-02-17T08:47:54;100983.94;;;14.16;100.00
34243;BME280;20504;43.214;27.920;2023-02-17T08:50:20;100984.38;;;14.10;100.00
34243;BME280;20504;43.214;27.920;2023-02-17T08:52:45;101001.78;;;14.03;100.00
34243;BME280;20504;43.214;27.920;2023-02-17T08:55:11;100990.25;;;14.02;100.00
34243;BME280;20504;43.214;27.920;2023-02-17T08:57:37;101006.91;;;13.93;100.00
34243;BME280;20504;43.214;27.920;2023-02-17T09:00:07;100974.03;;;14.18;100.00
34243;BME280;20504;43.214;27.920;2023-02-17T09:02:33;100972.19;;;14.18;100.00
34243;BME280;20504;43.214;27.920;2023-02-17T09:04:58;100932.97;;;14.44;100.00
34243;BME280;20504;43.214;27.920;2023-02-17T09:07:24;100940.31;;;14.41;100.00
34243;BME280;20504;43.214;27.920;2023-02-17T09:09:49;100914.59;;;14.64;100.00
34243;BME280;20504;43.214;27.920;2023-02-17T09:12:14;100938.06;;;14.47;100.00
34243;BME280;20504;43.214;27.920;2023-02-17T09:14:40;100911.50;;;14.70;100.00
34243;BME280;20504;43.214;27.920;2023-02-17T09:17:05;100908.72;;;14.71;100.00
34243;BME280;20504;43.214;27.920;2023-02-17T09:19:31;100877.81;;;14.91;100.00
34243;BME280;20504;43.214;27.920;2023-02-17T09:21:56;100857.81;;;15.08;100.00
34243;BME280;20504;43.214;27.920;2023-02-17T09:24:22;100811.06;;;15.47;100.00
34243;BME280;20504;43.214;27.920;2023-02-17T09:26:48;100851.50;;;15.20;100.00
34243;BME280;20504;43.214;27.920;2023-02-17T09:29:13;100808.00;;;15.52;100.00
34243;BME280;20504;43.214;27.920;2023-02-17T09:31:39;100823.06;;;15.53;100.00
34243;BME280;20504;43.214;27.920;2023-02-17T09:34:05;100824.88;;;15.41;100.00
34243;BME280;20504;43.214;27.920;2023-02-17T09:36:32;100786.84;;;15.71;100.00
34243;BME280;20504;43.214;27.920;2023-02-17T09:38:59;100822.09;;;15.42;100.00
34243;BME280;20504;43.214;27.920;2023-02-17T09:41:41;100814.31;;;15.51;100.00
34243;BME280;20504;43.214;27.920;2023-02-17T09:44:42;100806.56;;;15.59;100.00
34243;BME280;20504;43.214;27.920;2023-02-17T09:47:16;100821.88;;;15.45;100.00
34243;BME280;20504;43.214;27.920;2023-02-17T09:49:54;100803.50;;;15.52;100.00
34243;BME280;20504;43.214;27.920;2023-02-17T09:55:03;100777.97;;;15.70;100.00
34243;BME280;20504;43.214;27.920;2023-02-17T09:57:34;100750.31;;;15.92;100.00
34243;BME280;20504;43.214;27.920;2023-02-17T10:00:32;100777.13;;;15.70;100.00
34243;BME280;20504;43.214;27.920;2023-02-17T10:03:15;100782.75;;;15.67;100.00
34243;BME280;20504;43.214;27.920;2023-02-17T10:05:52;100763.63;;;15.83;100.00
34243;BME280;20504;43.214;27.920;2023-02-17T10:08:26;100742.75;;;15.97;100.00
34243;BME280;20504;43.214;27.920;2023-02-17T10:11:10;100691.97;;;16.18;100.00
34243;BME280;20504;43.214;27.920;2023-02-17T10:13:39;100663.25;;;16.51;100.00
34243;BME280;20504;43.214;27.920;2023-02-17T10:16:10;100647.56;;;16.67;100.00
34243;BME280;20504;43.214;27.920;2023-02-17T10:21:57;100677.72;;;16.39;100.00
34243;BME280;20504;43.214;27.920;2023-02-17T10:24:26;100656.19;;;16.50;100.00
34243;BME280;20504;43.214;27.920;2023-02-17T10:27:14;100617.19;;;16.78;100.00
34243;BME280;20504;43.214;27.920;2023-02-17T10:32:27;100578.03;;;17.06;100.00
34243;BME280;20504;43.214;27.920;2023-02-17T10:37:45;100587.06;;;16.95;100.00
34243;BME280;20504;43.214;27.920;2023-02-17T10:40:16;100584.50;;;17.03;100.00
34243;BME280;20504;43.214;27.920;2023-02-17T10:42:43;100565.91;;;17.02;100.00
34243;BME280;20504;43.214;27.920;2023-02-17T10:45:14;100561.41;;;17.12;100.00
34243;BME280;20504;43.214;27.920;2023-02-17T10:47:43;100499.59;;;17.52;100.00
34243;BME280;20504;43.214;27.920;2023-02-17T10:50:21;100550.13;;;17.18;100.00
34243;BME280;20504;43.214;27.920;2023-02-17T10:52:48;100630.19;;;16.61;100.00
34243;BME280;20504;43.214;27.920;2023-02-17T10:55:37;100578.72;;;16.98;100.00
34243;BME280;20504;43.214;27.920;2023-02-17T11:00:56;100505.81;;;17.43;100.00
34243;BME280;20504;43.214;27.920;2023-02-17T11:03:25;100500.69;;;17.59;100.00
34243;BME280;20504;43.214;27.920;2023-02-17T11:06:00;100445.88;;;17.91;100.00
34243;BME280;20504;43.214;27.920;2023-02-17T12:36:04;99972.47;;;21.40;100.00
34243;BME280;20504;43.214;27.920;2023-02-17T12:38:34;99858.47;;;22.26;100.00
34243;BME280;20504;43.214;27.920;2023-02-17T12:41:11;99732.56;;;23.31;100.00
34243;BME280;20504;43.214;27.920;2023-02-17T12:43:59;99681.78;;;23.80;100.00
34243;BME280;20504;43.214;27.920;2023-02-17T12:46:36;99699.44;;;23.76;100.00
34243;BME280;20504;43.214;27.920;2023-02-17T12:49:11;99719.00;;;23.65;100.00
34243;BME280;20504;43.214;27.920;2023-02-17T12:51:57;99778.22;;;23.12;100.00
34243;BME280;20504;43.214;27.920;2023-02-17T12:59:34;99929.25;;;22.36;100.00
34243;BME280;20504;43.214;27.920;2023-02-17T13:04:33;99934.56;;;22.30;100.00
34243;BME280;20504;43.214;27.920;2023-02-17T13:09:44;100056.75;;;21.42;100.00
34243;BME280;20504;43.214;27.920;2023-02-17T13:14:49;100060.97;;;21.36;100.00
34243;BME280;20504;43.214;27.920;2023-02-17T13:17:29;100084.44;;;21.05;100.00
34243;BME280;20504;43.214;27.920;2023-02-17T13:22:41;100233.59;;;20.08;100.00
34243;BME280;20504;43.214;27.920;2023-02-17T13:25:30;100258.81;;;19.82;100.00
34243;BME280;20504;43.214;27.920;2023-02-17T13:27:58;100205.19;;;20.21;100.00
34243;BME280;20504;43.214;27.920;2023-02-17T13:30:39;100180.63;;;20.33;100.00
34243;BME280;20504;43.214;27.920;2023-02-17T13:33:39;100092.72;;;20.95;100.00
34243;BME280;20504;43.214;27.920;2023-02-17T13:36:11;100092.06;;;20.93;100.00
34243;BME280;20504;43.214;27.920;2023-02-17T13:38:36;99987.69;;;21.70;100.00
34243;BME280;20504;43.214;27.920;2023-02-17T13:41:05;100007.31;;;21.64;100.00
34243;BME280;20504;43.214;27.920;2023-02-17T13:43:40;100078.44;;;21.17;100.00
34243;BME280;20504;43.214;27.920;2023-02-17T13:46:06;100001.81;;;21.58;100.00
34243;BME280;20504;43.214;27.920;2023-02-17T13:48:34;100030.78;;;21.41;100.00
34243;BME280;20504;43.214;27.920;2023-02-17T13:51:06;100070.88;;;21.13;100.00
34243;BME280;20504;43.214;27.920;2023-02-17T13:53:40;100127.34;;;20.75;100.00
34243;BME280;20504;43.214;27.920;2023-02-17T13:56:09;100216.63;;;20.15;100.00
34243;BME280;20504;43.214;27.920;2023-02-17T13:58:37;100232.06;;;19.73;100.00
34243;BME280;20504;43.214;27.920;2023-02-17T14:01:05;100279.09;;;19.69;100.00
34243;BME280;20504;43.214;27.920;2023-02-17T14:06:21;100275.06;;;19.56;100.00
34243;BME280;20504;43.214;27.920;2023-02-17T14:08:48;100340.88;;;19.18;100.00
34243;BME280;20504;43.214;27.920;2023-02-17T14:11:17;100372.38;;;18.82;100.00
34243;BME280;20504;43.214;27.920;2023-02-17T14:13:46;100374.06;;;18.83;100.00
34243;BME280;20504;43.214;27.920;2023-02-17T14:16:32;100375.06;;;18.82;100.00
34243;BME280;20504;43.214;27.920;2023-02-17T14:19:04;100379.50;;;18.73;100.00
34243;BME280;20504;43.214;27.920;2023-02-17T14:21:30;100434.56;;;18.42;100.00
34243;BME280;20504;43.214;27.920;2023-02-17T14:23:56;100475.59;;;18.07;100.00
34243;BME280;20504;43.214;27.920;2023-02-17T14:26:46;100455.19;;;18.24;100.00
34243;BME280;20504;43.214;27.920;2023-02-17T14:29:13;100476.44;;;18.07;100.00
34243;BME280;20504;43.214;27.920;2023-02-17T14:34:05;100516.47;;;17.81;100.00
34243;BME280;20504;43.214;27.920;2023-02-17T14:36:39;100524.97;;;17.67;100.00
34243;BME280;20504;43.214;27.920;2023-02-17T14:39:11;100527.53;;;17.49;100.00
34243;BME280;20504;43.214;27.920;2023-02-17T14:41:37;100546.72;;;17.45;100.00
34243;BME280;20504;43.214;27.920;2023-02-17T14:44:02;100546.16;;;17.41;100.00
34243;BME280;20504;43.214;27.920;2023-02-17T14:46:30;100550.38;;;17.44;100.00
34243;BME280;20504;43.214;27.920;2023-02-17T14:48:56;100551.25;;;17.35;100.00
34243;BME280;20504;43.214;27.920;2023-02-17T14:51:23;100597.34;;;17.09;100.00
34243;BME280;20504;43.214;27.920;2023-02-17T14:53:50;100604.25;;;17.02;100.00
34243;BME280;20504;43.214;27.920;2023-02-17T14:56:26;100609.72;;;16.81;100.00
34243;BME280;20504;43.214;27.920;2023-02-17T14:58:54;100658.22;;;16.57;100.00
34243;BME280;20504;43.214;27.920;2023-02-17T15:01:21;100670.84;;;16.46;100.00
34243;BME280;20504;43.214;27.920;2023-02-17T15:03:47;100692.31;;;16.34;100.00
34243;BME280;20504;43.214;27.920;2023-02-17T15:06:29;100653.00;;;16.56;100.00